Eighty Four, Pennsylvania
Current Conditions -  °F | °C
As of 2:15 AM on Thursday 18 Dec 2014 (Local Time) from KAFJ Reporting Station
Overcast Overcast  
Wind Chill: -8°   Ceiling: 2400
Heat Index: -3°   Visibility: 10mi
Dew Point: -8°   Wind: 9mph
Humidity: 69%   Direction: 270°W
Pressure: 30.18"   Gusts: NA
Location:  40.18°N, 80.13°W
Report Text: KAFJ 180715Z AUTO 27008KT 10SM OVC024 M03/M08 A3018 RMK AO1
Loading
Personal Weather Stations






























Interactive Weather Map New forecast layout! Learn more

10-Day Weather Forecast

Advertisements
Track Severe Weather on mobile